sensor_id;sensor_type;location;lat;lon;timestamp;temperature;humidity
24326;DHT22;12448;45.532;5.290;2022-12-07T00:01:33;4.10;96.10
24326;DHT22;12448;45.532;5.290;2022-12-07T00:04:01;3.70;96.00
24326;DHT22;12448;45.532;5.290;2022-12-07T00:06:31;3.70;96.00
24326;DHT22;12448;45.532;5.290;2022-12-07T00:08:57;3.60;95.90
24326;DHT22;12448;45.532;5.290;2022-12-07T00:11:23;3.90;96.00
24326;DHT22;12448;45.532;5.290;2022-12-07T00:13:57;3.70;95.90
24326;DHT22;12448;45.532;5.290;2022-12-07T00:16:25;3.60;95.90
24326;DHT22;12448;45.532;5.290;2022-12-07T00:18:51;4.00;96.00
24326;DHT22;12448;45.532;5.290;2022-12-07T00:23:44;4.30;96.10
24326;DHT22;12448;45.532;5.290;2022-12-07T00:26:22;3.80;95.70
24326;DHT22;12448;45.532;5.290;2022-12-07T00:28:51;3.70;95.60
24326;DHT22;12448;45.532;5.290;2022-12-07T00:31:18;3.60;95.60
24326;DHT22;12448;45.532;5.290;2022-12-07T00:33:45;3.80;95.60
24326;DHT22;12448;45.532;5.290;2022-12-07T00:36:13;3.70;95.70
24326;DHT22;12448;45.532;5.290;2022-12-07T00:38:39;4.00;95.80
24326;DHT22;12448;45.532;5.290;2022-12-07T00:41:11;3.60;95.60
24326;DHT22;12448;45.532;5.290;2022-12-07T00:43:37;3.50;95.60
24326;DHT22;12448;45.532;5.290;2022-12-07T00:46:03;4.00;95.80
24326;DHT22;12448;45.532;5.290;2022-12-07T00:48:29;3.50;95.70
24326;DHT22;12448;45.532;5.290;2022-12-07T00:50:55;3.50;95.70
24326;DHT22;12448;45.532;5.290;2022-12-07T00:53:21;3.80;95.80
24326;DHT22;12448;45.532;5.290;2022-12-07T00:55:47;3.90;95.90
24326;DHT22;12448;45.532;5.290;2022-12-07T00:58:13;3.40;96.10
24326;DHT22;12448;45.532;5.290;2022-12-07T01:00:40;3.40;95.80
24326;DHT22;12448;45.532;5.290;2022-12-07T01:03:08;3.40;95.90
24326;DHT22;12448;45.532;5.290;2022-12-07T01:05:34;3.40;95.90
24326;DHT22;12448;45.532;5.290;2022-12-07T01:08:00;3.70;96.00
24326;DHT22;12448;45.532;5.290;2022-12-07T01:10:27;3.50;96.00
24326;DHT22;12448;45.532;5.290;2022-12-07T01:12:52;3.60;95.90
24326;DHT22;12448;45.532;5.290;2022-12-07T01:15:18;3.60;95.90
24326;DHT22;12448;45.532;5.290;2022-12-07T01:17:44;3.60;95.90
24326;DHT22;12448;45.532;5.290;2022-12-07T01:20:10;3.70;95.70
24326;DHT22;12448;45.532;5.290;2022-12-07T01:22:40;3.60;95.60
24326;DHT22;12448;45.532;5.290;2022-12-07T01:25:08;3.60;95.70
24326;DHT22;12448;45.532;5.290;2022-12-07T01:27:34;3.60;95.80
24326;DHT22;12448;45.532;5.290;2022-12-07T01:30:02;3.80;95.80
24326;DHT22;12448;45.532;5.290;2022-12-07T01:32:28;3.50;95.60
24326;DHT22;12448;45.532;5.290;2022-12-07T01:34:54;3.50;95.60
24326;DHT22;12448;45.532;5.290;2022-12-07T01:37:20;3.50;95.70
24326;DHT22;12448;45.532;5.290;2022-12-07T01:39:49;3.60;95.70
24326;DHT22;12448;45.532;5.290;2022-12-07T01:42:15;4.00;95.80
24326;DHT22;12448;45.532;5.290;2022-12-07T01:47:53;3.50;95.60
24326;DHT22;12448;45.532;5.290;2022-12-07T01:50:20;4.00;95.90
24326;DHT22;12448;45.532;5.290;2022-12-07T01:52:48;3.70;95.80
24326;DHT22;12448;45.532;5.290;2022-12-07T01:55:15;3.50;95.70
24326;DHT22;12448;45.532;5.290;2022-12-07T01:57:44;3.50;95.80
24326;DHT22;12448;45.532;5.290;2022-12-07T02:00:11;3.90;95.80
24326;DHT22;12448;45.532;5.290;2022-12-07T02:02:46;3.50;95.80
24326;DHT22;12448;45.532;5.290;2022-12-07T02:05:13;3.50;95.80
24326;DHT22;12448;45.532;5.290;2022-12-07T02:07:39;3.80;96.00
24326;DHT22;12448;45.532;5.290;2022-12-07T02:10:20;3.60;95.90
24326;DHT22;12448;45.532;5.290;2022-12-07T02:12:49;3.50;95.70
24326;DHT22;12448;45.532;5.290;2022-12-07T02:15:17;3.90;95.80
24326;DHT22;12448;45.532;5.290;2022-12-07T02:18:09;3.50;95.80
24326;DHT22;12448;45.532;5.290;2022-12-07T02:23:53;3.40;95.90
24326;DHT22;12448;45.532;5.290;2022-12-07T02:26:50;3.50;96.00
24326;DHT22;12448;45.532;5.290;2022-12-07T02:32:13;4.00;96.20
24326;DHT22;12448;45.532;5.290;2022-12-07T02:34:51;3.40;96.00
24326;DHT22;12448;45.532;5.290;2022-12-07T02:40:48;3.40;96.10
24326;DHT22;12448;45.532;5.290;2022-12-07T02:43:34;3.40;96.10
24326;DHT22;12448;45.532;5.290;2022-12-07T02:46:05;3.40;96.10
24326;DHT22;12448;45.532;5.290;2022-12-07T02:48:34;3.40;96.10
24326;DHT22;12448;45.532;5.290;2022-12-07T02:51:00;3.30;96.10
24326;DHT22;12448;45.532;5.290;2022-12-07T02:53:37;3.30;96.20
24326;DHT22;12448;45.532;5.290;2022-12-07T03:07:39;3.30;96.20
24326;DHT22;12448;45.532;5.290;2022-12-07T03:19:08;3.40;96.30
24326;DHT22;12448;45.532;5.290;2022-12-07T03:21:39;3.50;96.30
24326;DHT22;12448;45.532;5.290;2022-12-07T03:24:09;3.80;96.30
24326;DHT22;12448;45.532;5.290;2022-12-07T03:26:38;3.50;96.20
24326;DHT22;12448;45.532;5.290;2022-12-07T03:29:11;3.50;96.20
24326;DHT22;12448;45.532;5.290;2022-12-07T03:31:43;4.00;96.30
24326;DHT22;12448;45.532;5.290;2022-12-07T03:34:22;3.50;96.10
24326;DHT22;12448;45.532;5.290;2022-12-07T03:37:23;3.60;96.10
24326;DHT22;12448;45.532;5.290;2022-12-07T03:42:30;3.60;96.10
24326;DHT22;12448;45.532;5.290;2022-12-07T03:44:56;3.70;95.90
24326;DHT22;12448;45.532;5.290;2022-12-07T03:47:31;3.60;95.90
24326;DHT22;12448;45.532;5.290;2022-12-07T03:50:05;3.90;96.00
24326;DHT22;12448;45.532;5.290;2022-12-07T03:57:47;3.70;95.80
24326;DHT22;12448;45.532;5.290;2022-12-07T04:00:14;3.70;95.80
24326;DHT22;12448;45.532;5.290;2022-12-07T04:02:41;3.70;95.70
24326;DHT22;12448;45.532;5.290;2022-12-07T04:05:07;3.70;95.60
24326;DHT22;12448;45.532;5.290;2022-12-07T04:07:33;3.70;95.60
24326;DHT22;12448;45.532;5.290;2022-12-07T04:09:59;3.70;95.60
24326;DHT22;12448;45.532;5.290;2022-12-07T04:12:25;3.70;95.60
24326;DHT22;12448;45.532;5.290;2022-12-07T04:14:50;3.70;95.60
24326;DHT22;12448;45.532;5.290;2022-12-07T04:17:16;3.70;95.60
24326;DHT22;12448;45.532;5.290;2022-12-07T04:19:41;3.70;95.60
24326;DHT22;12448;45.532;5.290;2022-12-07T04:22:07;3.70;95.70
24326;DHT22;12448;45.532;5.290;2022-12-07T04:24:34;3.70;95.70
24326;DHT22;12448;45.532;5.290;2022-12-07T04:26:59;3.70;95.70
24326;DHT22;12448;45.532;5.290;2022-12-07T04:29:25;4.10;95.80
24326;DHT22;12448;45.532;5.290;2022-12-07T04:31:51;3.80;95.70
24326;DHT22;12448;45.532;5.290;2022-12-07T04:34:17;3.80;95.60
24326;DHT22;12448;45.532;5.290;2022-12-07T04:36:44;3.80;95.60
24326;DHT22;12448;45.532;5.290;2022-12-07T04:39:25;3.80;95.60
24326;DHT22;12448;45.532;5.290;2022-12-07T04:41:51;3.80;95.60
24326;DHT22;12448;45.532;5.290;2022-12-07T04:44:17;3.70;95.60
24326;DHT22;12448;45.532;5.290;2022-12-07T04:46:44;3.80;95.60
24326;DHT22;12448;45.532;5.290;2022-12-07T04:49:11;3.70;95.60
24326;DHT22;12448;45.532;5.290;2022-12-07T04:51:37;3.80;95.60
24326;DHT22;12448;45.532;5.290;2022-12-07T04:54:03;3.80;95.60
24326;DHT22;12448;45.532;5.290;2022-12-07T04:56:28;3.90;95.60
24326;DHT22;12448;45.532;5.290;2022-12-07T04:58:55;3.90;95.60
24326;DHT22;12448;45.532;5.290;2022-12-07T05:01:21;3.90;95.50
24326;DHT22;12448;45.532;5.290;2022-12-07T05:03:48;3.90;95.40
24326;DHT22;12448;45.532;5.290;2022-12-07T05:06:14;3.80;95.40
24326;DHT22;12448;45.532;5.290;2022-12-07T05:08:41;3.80;95.30
24326;DHT22;12448;45.532;5.290;2022-12-07T05:11:08;3.80;95.20
24326;DHT22;12448;45.532;5.290;2022-12-07T05:13:35;3.80;95.20
24326;DHT22;12448;45.532;5.290;2022-12-07T05:16:01;3.80;95.20
24326;DHT22;12448;45.532;5.290;2022-12-07T05:18:27;4.00;95.30
24326;DHT22;12448;45.532;5.290;2022-12-07T05:20:53;3.80;95.30
24326;DHT22;12448;45.532;5.290;2022-12-07T05:23:19;3.70;95.20
24326;DHT22;12448;45.532;5.290;2022-12-07T05:25:45;3.70;95.10
24326;DHT22;12448;45.532;5.290;2022-12-07T05:28:10;3.70;95.20
24326;DHT22;12448;45.532;5.290;2022-12-07T05:30:36;3.70;95.10
24326;DHT22;12448;45.532;5.290;2022-12-07T05:33:02;3.70;95.10
24326;DHT22;12448;45.532;5.290;2022-12-07T05:35:28;3.70;95.10
24326;DHT22;12448;45.532;5.290;2022-12-07T05:37:54;3.60;95.10
24326;DHT22;12448;45.532;5.290;2022-12-07T05:40:19;4.10;95.20
24326;DHT22;12448;45.532;5.290;2022-12-07T05:42:45;3.90;95.20
24326;DHT22;12448;45.532;5.290;2022-12-07T05:45:11;3.60;95.20
24326;DHT22;12448;45.532;5.290;2022-12-07T05:47:37;3.60;95.10
24326;DHT22;12448;45.532;5.290;2022-12-07T05:50:04;3.70;95.20
24326;DHT22;12448;45.532;5.290;2022-12-07T05:52:30;3.60;95.20
24326;DHT22;12448;45.532;5.290;2022-12-07T05:54:56;3.60;95.30
24326;DHT22;12448;45.532;5.290;2022-12-07T05:57:22;3.60;95.20
24326;DHT22;12448;45.532;5.290;2022-12-07T05:59:47;4.00;95.20
24326;DHT22;12448;45.532;5.290;2022-12-07T06:02:15;3.60;95.20
24326;DHT22;12448;45.532;5.290;2022-12-07T06:04:43;3.60;95.20
24326;DHT22;12448;45.532;5.290;2022-12-07T06:07:10;3.60;95.40
24326;DHT22;12448;45.532;5.290;2022-12-07T06:09:36;3.70;95.40
24326;DHT22;12448;45.532;5.290;2022-12-07T06:12:03;3.60;95.40
24326;DHT22;12448;45.532;5.290;2022-12-07T06:14:48;3.70;95.40
24326;DHT22;12448;45.532;5.290;2022-12-07T06:17:14;3.60;95.30
24326;DHT22;12448;45.532;5.290;2022-12-07T06:19:40;3.70;95.30
24326;DHT22;12448;45.532;5.290;2022-12-07T06:22:06;3.70;95.30
24326;DHT22;12448;45.532;5.290;2022-12-07T06:24:32;3.70;95.30
24326;DHT22;12448;45.532;5.290;2022-12-07T06:26:58;3.70;95.30
24326;DHT22;12448;45.532;5.290;2022-12-07T06:29:24;4.10;95.40
24326;DHT22;12448;45.532;5.290;2022-12-07T06:31:50;4.10;95.70
24326;DHT22;12448;45.532;5.290;2022-12-07T06:34:18;3.80;95.30
24326;DHT22;12448;45.532;5.290;2022-12-07T06:36:45;3.80;95.20
24326;DHT22;12448;45.532;5.290;2022-12-07T06:39:12;3.70;95.20
24326;DHT22;12448;45.532;5.290;2022-12-07T06:41:38;3.70;95.10
24326;DHT22;12448;45.532;5.290;2022-12-07T06:44:05;3.70;95.20
24326;DHT22;12448;45.532;5.290;2022-12-07T06:46:31;3.70;95.20
24326;DHT22;12448;45.532;5.290;2022-12-07T06:48:57;4.00;95.40
24326;DHT22;12448;45.532;5.290;2022-12-07T06:51:22;3.70;95.30
24326;DHT22;12448;45.532;5.290;2022-12-07T06:53:48;3.70;95.30
24326;DHT22;12448;45.532;5.290;2022-12-07T06:56:14;3.80;95.30
24326;DHT22;12448;45.532;5.290;2022-12-07T06:58:40;3.70;95.30
24326;DHT22;12448;45.532;5.290;2022-12-07T07:01:13;3.80;95.40
24326;DHT22;12448;45.532;5.290;2022-12-07T07:03:39;3.70;95.40
24326;DHT22;12448;45.532;5.290;2022-12-07T07:06:06;3.70;95.40
24326;DHT22;12448;45.532;5.290;2022-12-07T07:08:33;3.70;95.40
24326;DHT22;12448;45.532;5.290;2022-12-07T07:10:59;3.60;95.40
24326;DHT22;12448;45.532;5.290;2022-12-07T07:13:24;3.60;95.40
24326;DHT22;12448;45.532;5.290;2022-12-07T07:15:50;3.80;95.50
24326;DHT22;12448;45.532;5.290;2022-12-07T07:18:16;3.60;95.50
24326;DHT22;12448;45.532;5.290;2022-12-07T07:20:41;3.70;95.60
24326;DHT22;12448;45.532;5.290;2022-12-07T07:23:07;3.70;95.60
24326;DHT22;12448;45.532;5.290;2022-12-07T07:25:33;3.70;95.50
24326;DHT22;12448;45.532;5.290;2022-12-07T07:27:59;3.70;95.60
24326;DHT22;12448;45.532;5.290;2022-12-07T07:30:25;3.70;95.60
24326;DHT22;12448;45.532;5.290;2022-12-07T07:32:51;3.70;95.60
24326;DHT22;12448;45.532;5.290;2022-12-07T07:35:17;3.70;95.60
24326;DHT22;12448;45.532;5.290;2022-12-07T07:37:43;3.70;95.60
24326;DHT22;12448;45.532;5.290;2022-12-07T07:40:09;3.70;95.60
24326;DHT22;12448;45.532;5.290;2022-12-07T07:42:35;3.70;95.60
24326;DHT22;12448;45.532;5.290;2022-12-07T07:45:00;3.80;95.70
24326;DHT22;12448;45.532;5.290;2022-12-07T07:47:26;3.70;95.70
24326;DHT22;12448;45.532;5.290;2022-12-07T07:49:51;4.40;95.90
24326;DHT22;12448;45.532;5.290;2022-12-07T07:52:17;4.40;95.90
24326;DHT22;12448;45.532;5.290;2022-12-07T07:54:43;3.80;95.70
24326;DHT22;12448;45.532;5.290;2022-12-07T07:57:08;3.80;95.70
24326;DHT22;12448;45.532;5.290;2022-12-07T07:59:34;3.80;95.70
24326;DHT22;12448;45.532;5.290;2022-12-07T08:01:59;3.70;95.60
24326;DHT22;12448;45.532;5.290;2022-12-07T08:04:25;3.70;95.60
24326;DHT22;12448;45.532;5.290;2022-12-07T08:06:51;3.70;95.70
24326;DHT22;12448;45.532;5.290;2022-12-07T08:09:17;3.80;95.80
24326;DHT22;12448;45.532;5.290;2022-12-07T08:11:42;3.80;95.80
24326;DHT22;12448;45.532;5.290;2022-12-07T08:14:10;3.80;95.80
24326;DHT22;12448;45.532;5.290;2022-12-07T08:16:36;3.70;95.80
24326;DHT22;12448;45.532;5.290;2022-12-07T08:19:04;3.80;95.80
24326;DHT22;12448;45.532;5.290;2022-12-07T08:21:30;3.70;95.80
24326;DHT22;12448;45.532;5.290;2022-12-07T08:23:57;3.60;95.90
24326;DHT22;12448;45.532;5.290;2022-12-07T08:26:22;3.60;95.90
24326;DHT22;12448;45.532;5.290;2022-12-07T08:28:48;3.60;95.90
24326;DHT22;12448;45.532;5.290;2022-12-07T08:31:16;3.90;96.00
24326;DHT22;12448;45.532;5.290;2022-12-07T08:33:42;3.60;96.00
24326;DHT22;12448;45.532;5.290;2022-12-07T08:36:10;3.60;96.10
24326;DHT22;12448;45.532;5.290;2022-12-07T08:38:37;4.00;96.30
24326;DHT22;12448;45.532;5.290;2022-12-07T08:41:03;4.00;96.30
24326;DHT22;12448;45.532;5.290;2022-12-07T08:43:29;3.60;96.20
24326;DHT22;12448;45.532;5.290;2022-12-07T08:48:58;3.60;96.20
24326;DHT22;12448;45.532;5.290;2022-12-07T08:51:26;3.60;96.20
24326;DHT22;12448;45.532;5.290;2022-12-07T08:53:52;3.60;96.20
24326;DHT22;12448;45.532;5.290;2022-12-07T08:56:19;3.70;96.30
24326;DHT22;12448;45.532;5.290;2022-12-07T08:58:45;3.60;96.30
24326;DHT22;12448;45.532;5.290;2022-12-07T09:01:11;3.70;96.30
24326;DHT22;12448;45.532;5.290;2022-12-07T09:03:37;3.70;96.30
24326;DHT22;12448;45.532;5.290;2022-12-07T09:06:03;3.60;96.30
24326;DHT22;12448;45.532;5.290;2022-12-07T09:08:33;3.60;96.40
24326;DHT22;12448;45.532;5.290;2022-12-07T09:10:59;3.60;96.40
24326;DHT22;12448;45.532;5.290;2022-12-07T09:13:24;3.60;96.50
24326;DHT22;12448;45.532;5.290;2022-12-07T09:15:50;3.60;96.50
24326;DHT22;12448;45.532;5.290;2022-12-07T09:18:16;3.60;96.50
24326;DHT22;12448;45.532;5.290;2022-12-07T09:20:41;3.60;96.50
24326;DHT22;12448;45.532;5.290;2022-12-07T09:23:07;3.60;96.60
24326;DHT22;12448;45.532;5.290;2022-12-07T09:25:34;3.50;96.60
24326;DHT22;12448;45.532;5.290;2022-12-07T09:27:59;3.40;96.70
24326;DHT22;12448;45.532;5.290;2022-12-07T09:30:26;3.40;96.80
24326;DHT22;12448;45.532;5.290;2022-12-07T09:32:56;3.50;96.90
24326;DHT22;12448;45.532;5.290;2022-12-07T09:35:23;3.50;96.90
24326;DHT22;12448;45.532;5.290;2022-12-07T09:37:48;3.50;96.80
24326;DHT22;12448;45.532;5.290;2022-12-07T09:40:16;3.50;96.80
24326;DHT22;12448;45.532;5.290;2022-12-07T09:42:46;3.50;97.00
24326;DHT22;12448;45.532;5.290;2022-12-07T09:45:19;3.50;97.30
24326;DHT22;12448;45.532;5.290;2022-12-07T09:47:46;3.30;97.40
24326;DHT22;12448;45.532;5.290;2022-12-07T09:50:18;3.30;97.40
24326;DHT22;12448;45.532;5.290;2022-12-07T09:52:45;3.30;97.40
24326;DHT22;12448;45.532;5.290;2022-12-07T09:55:19;3.30;97.50
24326;DHT22;12448;45.532;5.290;2022-12-07T09:57:46;3.30;97.50
24326;DHT22;12448;45.532;5.290;2022-12-07T10:00:17;3.40;97.40
24326;DHT22;12448;45.532;5.290;2022-12-07T10:03:02;3.50;97.30
24326;DHT22;12448;45.532;5.290;2022-12-07T10:05:36;3.50;97.10
24326;DHT22;12448;45.532;5.290;2022-12-07T10:08:03;3.90;97.20
24326;DHT22;12448;45.532;5.290;2022-12-07T10:10:34;3.50;97.00
24326;DHT22;12448;45.532;5.290;2022-12-07T10:13:03;3.50;96.90
24326;DHT22;12448;45.532;5.290;2022-12-07T10:18:28;3.60;96.80
24326;DHT22;12448;45.532;5.290;2022-12-07T10:21:15;3.60;97.00
24326;DHT22;12448;45.532;5.290;2022-12-07T10:24:03;3.60;96.60
24326;DHT22;12448;45.532;5.290;2022-12-07T10:26:35;3.60;96.60
24326;DHT22;12448;45.532;5.290;2022-12-07T10:34:41;3.60;96.50
24326;DHT22;12448;45.532;5.290;2022-12-07T10:37:18;3.60;96.50
24326;DHT22;12448;45.532;5.290;2022-12-07T10:44:48;3.70;96.50
24326;DHT22;12448;45.532;5.290;2022-12-07T11:03:37;3.60;96.80
24326;DHT22;12448;45.532;5.290;2022-12-07T11:06:12;3.60;96.90
24326;DHT22;12448;45.532;5.290;2022-12-07T11:11:39;3.80;96.90
24326;DHT22;12448;45.532;5.290;2022-12-07T11:16:51;4.10;97.00
24326;DHT22;12448;45.532;5.290;2022-12-07T11:22:03;3.60;96.80
24326;DHT22;12448;45.532;5.290;2022-12-07T11:24:41;3.60;96.80
24326;DHT22;12448;45.532;5.290;2022-12-07T11:27:34;4.20;97.10
24326;DHT22;12448;45.532;5.290;2022-12-07T11:30:23;3.70;96.90
24326;DHT22;12448;45.532;5.290;2022-12-07T11:38:28;3.50;97.00
24326;DHT22;12448;45.532;5.290;2022-12-07T11:41:02;4.00;97.30
24326;DHT22;12448;45.532;5.290;2022-12-07T11:44:30;4.10;97.40
24326;DHT22;12448;45.532;5.290;2022-12-07T11:46:47;3.60;97.20
24326;DHT22;12448;45.532;5.290;2022-12-07T11:52:04;3.50;97.00
24326;DHT22;12448;45.532;5.290;2022-12-07T11:54:35;3.70;97.10
24326;DHT22;12448;45.532;5.290;2022-12-07T11:57:13;3.60;97.00
24326;DHT22;12448;45.532;5.290;2022-12-07T11:59:47;3.50;97.00
24326;DHT22;12448;45.532;5.290;2022-12-07T12:02:21;4.10;97.20
24326;DHT22;12448;45.532;5.290;2022-12-07T12:05:07;4.10;97.20
24326;DHT22;12448;45.532;5.290;2022-12-07T12:07:38;3.60;97.10
24326;DHT22;12448;45.532;5.290;2022-12-07T12:10:14;3.60;97.10
24326;DHT22;12448;45.532;5.290;2022-12-07T12:13:03;3.70;97.10
24326;DHT22;12448;45.532;5.290;2022-12-07T12:18:26;3.80;96.90
24326;DHT22;12448;45.532;5.290;2022-12-07T12:21:02;3.80;96.80
24326;DHT22;12448;45.532;5.290;2022-12-07T12:25:56;3.70;96.70
24326;DHT22;12448;45.532;5.290;2022-12-07T12:31:13;3.60;96.70
24326;DHT22;12448;45.532;5.290;2022-12-07T12:33:55;3.60;96.70
24326;DHT22;12448;45.532;5.290;2022-12-07T12:36:47;3.60;96.80
24326;DHT22;12448;45.532;5.290;2022-12-07T12:39:17;3.60;96.80
24326;DHT22;12448;45.532;5.290;2022-12-07T12:49:30;4.20;97.00
24326;DHT22;12448;45.532;5.290;2022-12-07T12:51:59;3.70;96.80
24326;DHT22;12448;45.532;5.290;2022-12-07T12:54:27;3.70;96.80
24326;DHT22;12448;45.532;5.290;2022-12-07T13:18:41;3.60;96.30
24326;DHT22;12448;45.532;5.290;2022-12-07T13:28:51;3.60;96.60
24326;DHT22;12448;45.532;5.290;2022-12-07T13:33:55;3.60;96.50
24326;DHT22;12448;45.532;5.290;2022-12-07T13:36:33;3.60;96.40
24326;DHT22;12448;45.532;5.290;2022-12-07T13:39:22;4.10;96.50
24326;DHT22;12448;45.532;5.290;2022-12-07T13:41:54;3.70;96.40
24326;DHT22;12448;45.532;5.290;2022-12-07T13:44:20;3.60;96.30
24326;DHT22;12448;45.532;5.290;2022-12-07T13:46:54;3.60;96.40
24326;DHT22;12448;45.532;5.290;2022-12-07T13:49:25;3.60;96.50
24326;DHT22;12448;45.532;5.290;2022-12-07T13:51:52;3.60;96.40
24326;DHT22;12448;45.532;5.290;2022-12-07T13:54:19;4.10;96.60
24326;DHT22;12448;45.532;5.290;2022-12-07T13:56:51;3.80;96.50
24326;DHT22;12448;45.532;5.290;2022-12-07T13:59:26;3.70;96.40
24326;DHT22;12448;45.532;5.290;2022-12-07T14:01:53;4.00;96.40
24326;DHT22;12448;45.532;5.290;2022-12-07T14:04:30;3.80;96.40
24326;DHT22;12448;45.532;5.290;2022-12-07T14:06:57;3.70;96.40
24326;DHT22;12448;45.532;5.290;2022-12-07T14:09:25;3.70;96.30
24326;DHT22;12448;45.532;5.290;2022-12-07T14:11:53;3.80;96.30
24326;DHT22;12448;45.532;5.290;2022-12-07T14:14:26;3.80;96.20
24326;DHT22;12448;45.532;5.290;2022-12-07T14:17:08;3.60;96.20
24326;DHT22;12448;45.532;5.290;2022-12-07T14:19:40;3.90;96.30
24326;DHT22;12448;45.532;5.290;2022-12-07T14:24:48;3.60;96.20
24326;DHT22;12448;45.532;5.290;2022-12-07T14:27:23;4.00;96.40
24326;DHT22;12448;45.532;5.290;2022-12-07T14:29:51;3.70;96.40
24326;DHT22;12448;45.532;5.290;2022-12-07T14:32:26;3.70;96.30
24326;DHT22;12448;45.532;5.290;2022-12-07T14:37:20;3.70;96.20
24326;DHT22;12448;45.532;5.290;2022-12-07T14:39:46;3.70;96.20
24326;DHT22;12448;45.532;5.290;2022-12-07T14:42:12;3.70;96.10
24326;DHT22;12448;45.532;5.290;2022-12-07T14:44:37;3.60;96.00
24326;DHT22;12448;45.532;5.290;2022-12-07T14:47:03;3.60;96.10
24326;DHT22;12448;45.532;5.290;2022-12-07T14:49:28;3.60;96.10
24326;DHT22;12448;45.532;5.290;2022-12-07T14:51:54;4.00;96.20
24326;DHT22;12448;45.532;5.290;2022-12-07T14:54:20;3.60;96.20
24326;DHT22;12448;45.532;5.290;2022-12-07T14:56:49;4.20;96.30
24326;DHT22;12448;45.532;5.290;2022-12-07T14:59:16;3.70;96.10
24326;DHT22;12448;45.532;5.290;2022-12-07T15:01:42;3.70;96.10
24326;DHT22;12448;45.532;5.290;2022-12-07T15:04:08;4.20;96.20
24326;DHT22;12448;45.532;5.290;2022-12-07T15:06:34;3.70;96.20
24326;DHT22;12448;45.532;5.290;2022-12-07T15:09:00;3.80;96.20
24326;DHT22;12448;45.532;5.290;2022-12-07T15:11:25;3.70;96.10
24326;DHT22;12448;45.532;5.290;2022-12-07T15:13:51;3.80;96.10
24326;DHT22;12448;45.532;5.290;2022-12-07T15:16:37;3.80;96.10
24326;DHT22;12448;45.532;5.290;2022-12-07T15:19:05;3.70;96.10
24326;DHT22;12448;45.532;5.290;2022-12-07T15:21:31;3.70;96.10
24326;DHT22;12448;45.532;5.290;2022-12-07T15:23:57;4.00;96.30
24326;DHT22;12448;45.532;5.290;2022-12-07T15:26:22;3.60;96.20
24326;DHT22;12448;45.532;5.290;2022-12-07T15:28:48;3.70;96.20
24326;DHT22;12448;45.532;5.290;2022-12-07T15:31:15;4.10;96.40
24326;DHT22;12448;45.532;5.290;2022-12-07T15:33:42;3.70;96.20
24326;DHT22;12448;45.532;5.290;2022-12-07T15:36:08;3.70;96.30
24326;DHT22;12448;45.532;5.290;2022-12-07T15:38:37;3.80;96.30
24326;DHT22;12448;45.532;5.290;2022-12-07T15:41:03;4.30;96.70
24326;DHT22;12448;45.532;5.290;2022-12-07T15:43:29;3.80;96.30
24326;DHT22;12448;45.532;5.290;2022-12-07T15:46:13;3.80;96.30
24326;DHT22;12448;45.532;5.290;2022-12-07T15:48:39;3.80;96.20
24326;DHT22;12448;45.532;5.290;2022-12-07T15:51:07;3.80;96.10
24326;DHT22;12448;45.532;5.290;2022-12-07T15:53:34;3.80;96.20
24326;DHT22;12448;45.532;5.290;2022-12-07T15:56:00;3.80;96.30
24326;DHT22;12448;45.532;5.290;2022-12-07T15:58:26;4.00;96.30
24326;DHT22;12448;45.532;5.290;2022-12-07T16:00:51;3.80;96.20
24326;DHT22;12448;45.532;5.290;2022-12-07T16:03:17;3.80;96.10
24326;DHT22;12448;45.532;5.290;2022-12-07T16:05:49;4.00;96.20
24326;DHT22;12448;45.532;5.290;2022-12-07T16:08:14;3.90;96.20
24326;DHT22;12448;45.532;5.290;2022-12-07T16:10:40;3.90;96.00
24326;DHT22;12448;45.532;5.290;2022-12-07T16:13:09;3.90;96.00
24326;DHT22;12448;45.532;5.290;2022-12-07T16:15:38;3.80;96.00
24326;DHT22;12448;45.532;5.290;2022-12-07T16:18:04;3.80;96.00
24326;DHT22;12448;45.532;5.290;2022-12-07T16:20:29;3.80;96.00
24326;DHT22;12448;45.532;5.290;2022-12-07T16:22:55;3.70;96.10
24326;DHT22;12448;45.532;5.290;2022-12-07T16:25:21;3.60;96.00
24326;DHT22;12448;45.532;5.290;2022-12-07T16:27:46;3.60;96.10
24326;DHT22;12448;45.532;5.290;2022-12-07T16:30:13;3.60;96.00
24326;DHT22;12448;45.532;5.290;2022-12-07T16:32:39;3.60;96.00
24326;DHT22;12448;45.532;5.290;2022-12-07T16:35:05;3.60;96.00
24326;DHT22;12448;45.532;5.290;2022-12-07T16:37:31;3.60;95.90
24326;DHT22;12448;45.532;5.290;2022-12-07T16:39:57;4.00;96.00
24326;DHT22;12448;45.532;5.290;2022-12-07T16:42:22;4.00;96.20
24326;DHT22;12448;45.532;5.290;2022-12-07T16:44:48;4.00;96.20
24326;DHT22;12448;45.532;5.290;2022-12-07T16:47:13;3.80;96.20
24326;DHT22;12448;45.532;5.290;2022-12-07T16:49:39;3.50;96.10
24326;DHT22;12448;45.532;5.290;2022-12-07T16:52:05;3.50;96.50
24326;DHT22;12448;45.532;5.290;2022-12-07T16:54:30;3.50;96.10
24326;DHT22;12448;45.532;5.290;2022-12-07T16:56:58;3.50;96.00
24326;DHT22;12448;45.532;5.290;2022-12-07T16:59:24;3.70;96.10
24326;DHT22;12448;45.532;5.290;2022-12-07T17:01:49;3.90;96.10
24326;DHT22;12448;45.532;5.290;2022-12-07T17:04:15;3.50;95.90
24326;DHT22;12448;45.532;5.290;2022-12-07T17:06:41;4.10;96.10
24326;DHT22;12448;45.532;5.290;2022-12-07T17:09:06;3.60;95.80
24326;DHT22;12448;45.532;5.290;2022-12-07T17:11:35;3.60;95.80
24326;DHT22;12448;45.532;5.290;2022-12-07T17:14:01;3.70;95.80
24326;DHT22;12448;45.532;5.290;2022-12-07T17:16:45;4.20;95.80
24326;DHT22;12448;45.532;5.290;2022-12-07T17:19:14;3.70;95.60
24326;DHT22;12448;45.532;5.290;2022-12-07T17:21:41;3.70;95.50
24326;DHT22;12448;45.532;5.290;2022-12-07T17:24:09;3.70;95.50
24326;DHT22;12448;45.532;5.290;2022-12-07T17:26:35;3.80;95.60
24326;DHT22;12448;45.532;5.290;2022-12-07T17:29:02;3.90;95.50
24326;DHT22;12448;45.532;5.290;2022-12-07T17:31:28;4.10;95.50
24326;DHT22;12448;45.532;5.290;2022-12-07T17:33:54;4.40;95.50
24326;DHT22;12448;45.532;5.290;2022-12-07T17:36:22;3.90;95.40
24326;DHT22;12448;45.532;5.290;2022-12-07T17:38:48;3.90;95.30
24326;DHT22;12448;45.532;5.290;2022-12-07T17:41:20;3.90;95.30
24326;DHT22;12448;45.532;5.290;2022-12-07T17:44:07;3.80;95.00
24326;DHT22;12448;45.532;5.290;2022-12-07T17:46:33;3.90;95.20
24326;DHT22;12448;45.532;5.290;2022-12-07T17:48:59;3.80;94.80
24326;DHT22;12448;45.532;5.290;2022-12-07T17:51:25;3.80;95.00
24326;DHT22;12448;45.532;5.290;2022-12-07T17:54:10;3.80;95.10
24326;DHT22;12448;45.532;5.290;2022-12-07T17:56:36;3.80;95.20
24326;DHT22;12448;45.532;5.290;2022-12-07T17:59:03;3.70;95.10
24326;DHT22;12448;45.532;5.290;2022-12-07T18:01:28;3.70;95.20
24326;DHT22;12448;45.532;5.290;2022-12-07T18:03:54;3.70;95.20
24326;DHT22;12448;45.532;5.290;2022-12-07T18:06:20;3.80;95.20
24326;DHT22;12448;45.532;5.290;2022-12-07T18:08:46;4.10;95.30
24326;DHT22;12448;45.532;5.290;2022-12-07T18:11:12;3.80;95.30
24326;DHT22;12448;45.532;5.290;2022-12-07T18:13:37;3.70;95.30
24326;DHT22;12448;45.532;5.290;2022-12-07T18:16:06;3.80;95.40
24326;DHT22;12448;45.532;5.290;2022-12-07T18:18:32;3.80;95.30
24326;DHT22;12448;45.532;5.290;2022-12-07T18:20:57;3.80;95.30